Terminal Aerodrome Forecast
Issued by NWS

Home | Current Version | Previous Version | Text Only | Print | Product List | Glossary On
Versions: 1 2 3 4 5 6 7 8 9 10 11 12 13 14 15 16 17 18
000
FTUS43 KTOP 271733
TAFFOE
TAF
KFOE 271733Z 2718/2818 08008KT P6SM VCTS SCT060CB BKN250
     FM272300 35008KT P6SM SCT060
     FM280200 34009KT P6SM BKN025
     FM280900 32008KT P6SM SCT100=

USA.gov is the U.S. government's official web portal to all federal, state and local government web resources and services.